sensor_id;sensor_type;location;lat;lon;timestamp;P1;durP1;ratioP1;P2;durP2;ratioP2
51814;SDS011;37874;53.158;6.766;2022-11-15T00:04:28;9.43;;;7.07;;
51814;SDS011;37874;53.158;6.766;2022-11-15T00:07:31;9.75;;;7.00;;
51814;SDS011;37874;53.158;6.766;2022-11-15T00:10:34;8.75;;;6.70;;
51814;SDS011;37874;53.158;6.766;2022-11-15T00:20:03;8.15;;;6.70;;
51814;SDS011;37874;53.158;6.766;2022-11-15T00:32:36;8.70;;;6.97;;
51814;SDS011;37874;53.158;6.766;2022-11-15T00:38:43;8.27;;;6.53;;
51814;SDS011;37874;53.158;6.766;2022-11-15T00:50:37;7.93;;;6.50;;
51814;SDS011;37874;53.158;6.766;2022-11-15T00:59:47;7.65;;;6.40;;
51814;SDS011;37874;53.158;6.766;2022-11-15T01:02:32;7.43;;;5.83;;
51814;SDS011;37874;53.158;6.766;2022-11-15T01:08:39;7.38;;;5.95;;
51814;SDS011;37874;53.158;6.766;2022-11-15T01:14:27;7.38;;;6.28;;
51814;SDS011;37874;53.158;6.766;2022-11-15T01:29:43;9.32;;;5.95;;
51814;SDS011;37874;53.158;6.766;2022-11-15T01:32:47;10.13;;;6.07;;
51814;SDS011;37874;53.158;6.766;2022-11-15T01:42:16;8.30;;;6.13;;
51814;SDS011;37874;53.158;6.766;2022-11-15T01:44:44;8.07;;;6.07;;
51814;SDS011;37874;53.158;6.766;2022-11-15T01:47:35;7.90;;;6.45;;
51814;SDS011;37874;53.158;6.766;2022-11-15T01:50:12;7.55;;;5.35;;
51814;SDS011;37874;53.158;6.766;2022-11-15T01:52:40;7.50;;;5.57;;
51814;SDS011;37874;53.158;6.766;2022-11-15T01:55:20;7.18;;;5.60;;
51814;SDS011;37874;53.158;6.766;2022-11-15T01:57:50;8.02;;;6.05;;
51814;SDS011;37874;53.158;6.766;2022-11-15T02:00:23;8.50;;;6.18;;
51814;SDS011;37874;53.158;6.766;2022-11-15T02:02:49;7.72;;;5.88;;
51814;SDS011;37874;53.158;6.766;2022-11-15T02:05:15;7.82;;;5.30;;
51814;SDS011;37874;53.158;6.766;2022-11-15T02:07:41;7.47;;;5.65;;
51814;SDS011;37874;53.158;6.766;2022-11-15T02:10:17;6.85;;;5.05;;
51814;SDS011;37874;53.158;6.766;2022-11-15T02:12:45;7.53;;;5.22;;
51814;SDS011;37874;53.158;6.766;2022-11-15T02:15:12;7.88;;;5.45;;
51814;SDS011;37874;53.158;6.766;2022-11-15T02:17:48;7.20;;;5.57;;
51814;SDS011;37874;53.158;6.766;2022-11-15T02:29:03;9.05;;;6.00;;
51814;SDS011;37874;53.158;6.766;2022-11-15T02:31:49;8.18;;;6.18;;
51814;SDS011;37874;53.158;6.766;2022-11-15T02:42:19;9.52;;;6.05;;
51814;SDS011;37874;53.158;6.766;2022-11-15T02:45:09;9.73;;;6.72;;
51814;SDS011;37874;53.158;6.766;2022-11-15T02:47:41;7.90;;;5.70;;
51814;SDS011;37874;53.158;6.766;2022-11-15T02:50:13;7.65;;;5.88;;
51814;SDS011;37874;53.158;6.766;2022-11-15T02:52:44;8.57;;;6.22;;
51814;SDS011;37874;53.158;6.766;2022-11-15T02:55:27;8.55;;;5.50;;
51814;SDS011;37874;53.158;6.766;2022-11-15T03:11:30;7.93;;;5.43;;
51814;SDS011;37874;53.158;6.766;2022-11-15T03:19:46;7.50;;;5.80;;
51814;SDS011;37874;53.158;6.766;2022-11-15T03:22:16;7.75;;;5.22;;
51814;SDS011;37874;53.158;6.766;2022-11-15T03:24:46;8.35;;;5.70;;
51814;SDS011;37874;53.158;6.766;2022-11-15T03:27:17;9.43;;;5.65;;
51814;SDS011;37874;53.158;6.766;2022-11-15T03:29:50;8.32;;;5.63;;
51814;SDS011;37874;53.158;6.766;2022-11-15T03:32:23;7.60;;;5.63;;
51814;SDS011;37874;53.158;6.766;2022-11-15T03:35:11;8.70;;;5.10;;
51814;SDS011;37874;53.158;6.766;2022-11-15T03:40:36;7.47;;;5.95;;
51814;SDS011;37874;53.158;6.766;2022-11-15T03:45:56;8.10;;;5.60;;
51814;SDS011;37874;53.158;6.766;2022-11-15T03:48:27;7.95;;;6.05;;
51814;SDS011;37874;53.158;6.766;2022-11-15T03:57:15;8.07;;;5.57;;
51814;SDS011;37874;53.158;6.766;2022-11-15T04:09:28;8.93;;;5.82;;
51814;SDS011;37874;53.158;6.766;2022-11-15T04:25:09;9.13;;;6.20;;
51814;SDS011;37874;53.158;6.766;2022-11-15T04:27:53;9.53;;;6.20;;
51814;SDS011;37874;53.158;6.766;2022-11-15T04:30:38;10.05;;;6.07;;
51814;SDS011;37874;53.158;6.766;2022-11-15T04:39:29;10.60;;;6.18;;
51814;SDS011;37874;53.158;6.766;2022-11-15T04:42:14;10.00;;;5.93;;
51814;SDS011;37874;53.158;6.766;2022-11-15T04:48:20;11.40;;;6.85;;
51814;SDS011;37874;53.158;6.766;2022-11-15T04:54:27;9.95;;;5.53;;
51814;SDS011;37874;53.158;6.766;2022-11-15T05:00:34;11.18;;;6.72;;
51814;SDS011;37874;53.158;6.766;2022-11-15T05:03:38;10.63;;;6.20;;
51814;SDS011;37874;53.158;6.766;2022-11-15T05:10:03;9.98;;;6.07;;
51814;SDS011;37874;53.158;6.766;2022-11-15T05:13:07;8.75;;;5.63;;
51814;SDS011;37874;53.158;6.766;2022-11-15T05:15:51;10.30;;;6.25;;
51814;SDS011;37874;53.158;6.766;2022-11-15T05:18:55;9.50;;;6.63;;
51814;SDS011;37874;53.158;6.766;2022-11-15T05:21:40;10.50;;;6.30;;
51814;SDS011;37874;53.158;6.766;2022-11-15T05:27:47;9.45;;;6.47;;
51814;SDS011;37874;53.158;6.766;2022-11-15T05:30:31;11.70;;;6.47;;
51814;SDS011;37874;53.158;6.766;2022-11-15T05:36:36;9.60;;;6.35;;
51814;SDS011;37874;53.158;6.766;2022-11-15T05:42:24;12.35;;;6.82;;
51814;SDS011;37874;53.158;6.766;2022-11-15T05:44:51;10.68;;;6.80;;
51814;SDS011;37874;53.158;6.766;2022-11-15T05:47:18;14.55;;;7.07;;
51814;SDS011;37874;53.158;6.766;2022-11-15T05:49:47;12.93;;;6.93;;
51814;SDS011;37874;53.158;6.766;2022-11-15T05:52:16;13.60;;;7.45;;
51814;SDS011;37874;53.158;6.766;2022-11-15T05:54:45;10.63;;;6.60;;
51814;SDS011;37874;53.158;6.766;2022-11-15T05:57:11;13.45;;;7.05;;
51814;SDS011;37874;53.158;6.766;2022-11-15T05:59:36;11.77;;;6.82;;
51814;SDS011;37874;53.158;6.766;2022-11-15T06:02:03;12.50;;;7.15;;
51814;SDS011;37874;53.158;6.766;2022-11-15T06:04:28;16.65;;;7.47;;
51814;SDS011;37874;53.158;6.766;2022-11-15T06:06:54;11.35;;;7.35;;
51814;SDS011;37874;53.158;6.766;2022-11-15T06:09:19;12.77;;;7.32;;
51814;SDS011;37874;53.158;6.766;2022-11-15T06:11:45;14.57;;;8.23;;
51814;SDS011;37874;53.158;6.766;2022-11-15T06:14:11;15.98;;;7.72;;
51814;SDS011;37874;53.158;6.766;2022-11-15T06:16:36;15.15;;;7.70;;
51814;SDS011;37874;53.158;6.766;2022-11-15T06:19:02;14.68;;;7.32;;
51814;SDS011;37874;53.158;6.766;2022-11-15T06:21:28;16.33;;;8.23;;
51814;SDS011;37874;53.158;6.766;2022-11-15T06:23:54;13.02;;;7.30;;
51814;SDS011;37874;53.158;6.766;2022-11-15T06:26:20;15.25;;;8.23;;
51814;SDS011;37874;53.158;6.766;2022-11-15T06:28:45;13.73;;;7.30;;
51814;SDS011;37874;53.158;6.766;2022-11-15T06:31:11;15.02;;;7.78;;
51814;SDS011;37874;53.158;6.766;2022-11-15T06:33:37;13.40;;;7.32;;
51814;SDS011;37874;53.158;6.766;2022-11-15T06:36:04;16.60;;;7.65;;
51814;SDS011;37874;53.158;6.766;2022-11-15T06:38:31;12.27;;;7.53;;
51814;SDS011;37874;53.158;6.766;2022-11-15T06:41:03;14.18;;;7.53;;
51814;SDS011;37874;53.158;6.766;2022-11-15T06:43:31;14.23;;;7.75;;
51814;SDS011;37874;53.158;6.766;2022-11-15T06:45:59;15.38;;;8.00;;
51814;SDS011;37874;53.158;6.766;2022-11-15T06:48:26;11.88;;;6.80;;
51814;SDS011;37874;53.158;6.766;2022-11-15T06:50:53;14.02;;;7.55;;
51814;SDS011;37874;53.158;6.766;2022-11-15T06:53:20;10.55;;;6.78;;
51814;SDS011;37874;53.158;6.766;2022-11-15T06:55:46;11.57;;;6.40;;
51814;SDS011;37874;53.158;6.766;2022-11-15T06:58:12;14.93;;;7.30;;
51814;SDS011;37874;53.158;6.766;2022-11-15T07:00:37;11.88;;;6.80;;
51814;SDS011;37874;53.158;6.766;2022-11-15T07:03:03;13.10;;;6.95;;
51814;SDS011;37874;53.158;6.766;2022-11-15T07:05:29;14.20;;;7.20;;
51814;SDS011;37874;53.158;6.766;2022-11-15T07:07:55;9.60;;;5.80;;
51814;SDS011;37874;53.158;6.766;2022-11-15T07:10:22;9.55;;;6.28;;
51814;SDS011;37874;53.158;6.766;2022-11-15T07:12:50;12.55;;;6.70;;
51814;SDS011;37874;53.158;6.766;2022-11-15T07:15:21;11.55;;;7.70;;
51814;SDS011;37874;53.158;6.766;2022-11-15T07:17:48;11.13;;;6.47;;
51814;SDS011;37874;53.158;6.766;2022-11-15T07:20:14;10.60;;;6.55;;
51814;SDS011;37874;53.158;6.766;2022-11-15T07:22:41;12.35;;;6.72;;
51814;SDS011;37874;53.158;6.766;2022-11-15T07:25:07;9.60;;;6.00;;
51814;SDS011;37874;53.158;6.766;2022-11-15T07:27:33;8.07;;;5.70;;
51814;SDS011;37874;53.158;6.766;2022-11-15T07:29:59;10.10;;;6.45;;
51814;SDS011;37874;53.158;6.766;2022-11-15T07:32:25;9.50;;;6.40;;
51814;SDS011;37874;53.158;6.766;2022-11-15T07:34:51;10.73;;;6.57;;
51814;SDS011;37874;53.158;6.766;2022-11-15T07:37:16;11.15;;;6.72;;
51814;SDS011;37874;53.158;6.766;2022-11-15T07:39:42;11.93;;;7.15;;
51814;SDS011;37874;53.158;6.766;2022-11-15T07:42:08;7.80;;;5.90;;
51814;SDS011;37874;53.158;6.766;2022-11-15T07:44:53;9.23;;;5.97;;
51814;SDS011;37874;53.158;6.766;2022-11-15T07:47:18;9.32;;;5.57;;
51814;SDS011;37874;53.158;6.766;2022-11-15T07:49:44;9.18;;;5.80;;
51814;SDS011;37874;53.158;6.766;2022-11-15T07:52:11;9.68;;;6.03;;
51814;SDS011;37874;53.158;6.766;2022-11-15T07:54:37;8.00;;;5.60;;
51814;SDS011;37874;53.158;6.766;2022-11-15T07:57:02;12.18;;;5.93;;
51814;SDS011;37874;53.158;6.766;2022-11-15T07:59:29;8.95;;;5.50;;
51814;SDS011;37874;53.158;6.766;2022-11-15T08:01:55;10.75;;;5.90;;
51814;SDS011;37874;53.158;6.766;2022-11-15T08:04:21;9.25;;;6.00;;
51814;SDS011;37874;53.158;6.766;2022-11-15T08:06:47;8.52;;;5.72;;
51814;SDS011;37874;53.158;6.766;2022-11-15T08:09:12;8.48;;;5.95;;
51814;SDS011;37874;53.158;6.766;2022-11-15T08:11:41;8.60;;;5.15;;
51814;SDS011;37874;53.158;6.766;2022-11-15T08:14:06;7.82;;;5.47;;
51814;SDS011;37874;53.158;6.766;2022-11-15T08:16:32;8.63;;;5.22;;
51814;SDS011;37874;53.158;6.766;2022-11-15T08:18:58;7.70;;;5.15;;
51814;SDS011;37874;53.158;6.766;2022-11-15T08:21:23;7.45;;;4.90;;
51814;SDS011;37874;53.158;6.766;2022-11-15T08:23:49;8.00;;;5.50;;
51814;SDS011;37874;53.158;6.766;2022-11-15T08:26:15;8.38;;;4.75;;
51814;SDS011;37874;53.158;6.766;2022-11-15T08:28:41;9.43;;;5.53;;
51814;SDS011;37874;53.158;6.766;2022-11-15T08:31:12;7.43;;;4.97;;
51814;SDS011;37874;53.158;6.766;2022-11-15T08:33:39;9.00;;;4.72;;
51814;SDS011;37874;53.158;6.766;2022-11-15T08:36:05;7.53;;;5.03;;
51814;SDS011;37874;53.158;6.766;2022-11-15T08:38:31;6.25;;;4.00;;
51814;SDS011;37874;53.158;6.766;2022-11-15T08:41:00;8.00;;;4.55;;
51814;SDS011;37874;53.158;6.766;2022-11-15T08:43:28;6.25;;;4.00;;
51814;SDS011;37874;53.158;6.766;2022-11-15T08:46:02;6.70;;;4.20;;
51814;SDS011;37874;53.158;6.766;2022-11-15T08:48:29;5.30;;;4.07;;
51814;SDS011;37874;53.158;6.766;2022-11-15T08:50:55;7.32;;;4.20;;
51814;SDS011;37874;53.158;6.766;2022-11-15T08:53:21;6.82;;;4.28;;
51814;SDS011;37874;53.158;6.766;2022-11-15T08:55:47;8.05;;;4.55;;
51814;SDS011;37874;53.158;6.766;2022-11-15T08:58:15;6.13;;;4.13;;
51814;SDS011;37874;53.158;6.766;2022-11-15T09:00:41;7.72;;;4.50;;
51814;SDS011;37874;53.158;6.766;2022-11-15T09:03:06;6.05;;;4.25;;
51814;SDS011;37874;53.158;6.766;2022-11-15T09:05:35;10.15;;;4.32;;
51814;SDS011;37874;53.158;6.766;2022-11-15T09:08:01;5.95;;;3.65;;
51814;SDS011;37874;53.158;6.766;2022-11-15T09:10:27;8.88;;;4.43;;
51814;SDS011;37874;53.158;6.766;2022-11-15T09:12:53;6.60;;;4.38;;
51814;SDS011;37874;53.158;6.766;2022-11-15T09:15:18;8.20;;;4.15;;
51814;SDS011;37874;53.158;6.766;2022-11-15T09:17:44;6.25;;;4.13;;
51814;SDS011;37874;53.158;6.766;2022-11-15T09:20:13;8.02;;;4.20;;
51814;SDS011;37874;53.158;6.766;2022-11-15T09:22:39;5.47;;;3.72;;
51814;SDS011;37874;53.158;6.766;2022-11-15T09:25:05;6.40;;;4.13;;
51814;SDS011;37874;53.158;6.766;2022-11-15T09:27:31;5.90;;;4.35;;
51814;SDS011;37874;53.158;6.766;2022-11-15T09:29:57;6.95;;;4.53;;
51814;SDS011;37874;53.158;6.766;2022-11-15T09:32:23;5.82;;;4.03;;
51814;SDS011;37874;53.158;6.766;2022-11-15T09:34:52;5.78;;;4.40;;
51814;SDS011;37874;53.158;6.766;2022-11-15T09:37:18;6.60;;;4.05;;
51814;SDS011;37874;53.158;6.766;2022-11-15T09:39:43;7.07;;;4.72;;
51814;SDS011;37874;53.158;6.766;2022-11-15T09:45:17;6.25;;;3.90;;
51814;SDS011;37874;53.158;6.766;2022-11-15T09:55:54;6.43;;;4.05;;
51814;SDS011;37874;53.158;6.766;2022-11-15T10:00:54;7.13;;;4.05;;
51814;SDS011;37874;53.158;6.766;2022-11-15T10:03:27;6.53;;;4.43;;
51814;SDS011;37874;53.158;6.766;2022-11-15T10:05:59;6.20;;;4.40;;
51814;SDS011;37874;53.158;6.766;2022-11-15T10:08:49;5.53;;;3.60;;
51814;SDS011;37874;53.158;6.766;2022-11-15T10:11:35;6.63;;;3.70;;
51814;SDS011;37874;53.158;6.766;2022-11-15T10:14:03;7.38;;;4.50;;
51814;SDS011;37874;53.158;6.766;2022-11-15T10:19:28;8.30;;;4.30;;
51814;SDS011;37874;53.158;6.766;2022-11-15T10:22:09;7.13;;;4.30;;
51814;SDS011;37874;53.158;6.766;2022-11-15T10:24:43;8.43;;;3.92;;
51814;SDS011;37874;53.158;6.766;2022-11-15T10:27:11;5.60;;;3.75;;
51814;SDS011;37874;53.158;6.766;2022-11-15T10:29:48;6.22;;;3.92;;
51814;SDS011;37874;53.158;6.766;2022-11-15T10:32:19;7.55;;;4.47;;
51814;SDS011;37874;53.158;6.766;2022-11-15T10:34:46;7.78;;;3.53;;
51814;SDS011;37874;53.158;6.766;2022-11-15T10:37:13;5.70;;;4.13;;
51814;SDS011;37874;53.158;6.766;2022-11-15T10:39:39;5.95;;;3.92;;
51814;SDS011;37874;53.158;6.766;2022-11-15T10:42:15;8.23;;;3.90;;
51814;SDS011;37874;53.158;6.766;2022-11-15T10:44:54;7.88;;;4.13;;
51814;SDS011;37874;53.158;6.766;2022-11-15T10:47:25;6.88;;;3.83;;
51814;SDS011;37874;53.158;6.766;2022-11-15T10:50:07;9.82;;;4.13;;
51814;SDS011;37874;53.158;6.766;2022-11-15T10:52:53;7.53;;;4.50;;
51814;SDS011;37874;53.158;6.766;2022-11-15T10:55:23;11.15;;;4.90;;
51814;SDS011;37874;53.158;6.766;2022-11-15T10:57:53;9.18;;;5.20;;
51814;SDS011;37874;53.158;6.766;2022-11-15T11:00:45;12.00;;;5.20;;
51814;SDS011;37874;53.158;6.766;2022-11-15T11:03:24;10.20;;;4.85;;
51814;SDS011;37874;53.158;6.766;2022-11-15T11:06:05;9.57;;;5.40;;
51814;SDS011;37874;53.158;6.766;2022-11-15T11:08:36;13.20;;;5.50;;
51814;SDS011;37874;53.158;6.766;2022-11-15T11:11:02;8.95;;;5.47;;
51814;SDS011;37874;53.158;6.766;2022-11-15T11:13:31;10.35;;;5.57;;
51814;SDS011;37874;53.158;6.766;2022-11-15T11:16:44;11.45;;;5.18;;
51814;SDS011;37874;53.158;6.766;2022-11-15T11:30:00;8.68;;;4.70;;
51814;SDS011;37874;53.158;6.766;2022-11-15T11:32:40;7.47;;;4.80;;
51814;SDS011;37874;53.158;6.766;2022-11-15T11:35:32;8.23;;;4.90;;
51814;SDS011;37874;53.158;6.766;2022-11-15T11:41:08;7.57;;;5.20;;
51814;SDS011;37874;53.158;6.766;2022-11-15T11:48:50;6.90;;;4.38;;
51814;SDS011;37874;53.158;6.766;2022-11-15T11:56:29;7.70;;;4.32;;
51814;SDS011;37874;53.158;6.766;2022-11-15T12:01:49;8.23;;;4.10;;
51814;SDS011;37874;53.158;6.766;2022-11-15T12:04:19;7.22;;;4.57;;
51814;SDS011;37874;53.158;6.766;2022-11-15T12:06:53;6.85;;;4.07;;
51814;SDS011;37874;53.158;6.766;2022-11-15T12:09:34;6.32;;;3.92;;
51814;SDS011;37874;53.158;6.766;2022-11-15T12:14:41;8.90;;;4.00;;
51814;SDS011;37874;53.158;6.766;2022-11-15T12:17:13;7.15;;;3.50;;
51814;SDS011;37874;53.158;6.766;2022-11-15T12:19:41;5.65;;;3.28;;
51814;SDS011;37874;53.158;6.766;2022-11-15T12:22:19;6.80;;;3.53;;
51814;SDS011;37874;53.158;6.766;2022-11-15T12:25:02;7.05;;;3.50;;
51814;SDS011;37874;53.158;6.766;2022-11-15T12:30:19;5.93;;;3.05;;
51814;SDS011;37874;53.158;6.766;2022-11-15T12:32:54;6.65;;;3.17;;
51814;SDS011;37874;53.158;6.766;2022-11-15T12:35:43;5.20;;;3.03;;
51814;SDS011;37874;53.158;6.766;2022-11-15T12:38:13;5.35;;;3.10;;
51814;SDS011;37874;53.158;6.766;2022-11-15T12:41:25;4.57;;;2.85;;
51814;SDS011;37874;53.158;6.766;2022-11-15T12:43:51;5.88;;;3.00;;
51814;SDS011;37874;53.158;6.766;2022-11-15T12:48:55;5.32;;;2.78;;
51814;SDS011;37874;53.158;6.766;2022-11-15T13:02:29;6.45;;;2.60;;
51814;SDS011;37874;53.158;6.766;2022-11-15T13:05:19;5.07;;;2.50;;
51814;SDS011;37874;53.158;6.766;2022-11-15T13:22:39;5.75;;;2.50;;
51814;SDS011;37874;53.158;6.766;2022-11-15T13:30:40;6.35;;;2.38;;
51814;SDS011;37874;53.158;6.766;2022-11-15T13:33:15;4.78;;;2.15;;
51814;SDS011;37874;53.158;6.766;2022-11-15T13:35:45;4.30;;;2.40;;
51814;SDS011;37874;53.158;6.766;2022-11-15T13:41:20;4.45;;;2.20;;
51814;SDS011;37874;53.158;6.766;2022-11-15T13:43:48;3.58;;;1.83;;
51814;SDS011;37874;53.158;6.766;2022-11-15T13:48:44;3.60;;;2.08;;
51814;SDS011;37874;53.158;6.766;2022-11-15T13:51:17;3.75;;;2.00;;
51814;SDS011;37874;53.158;6.766;2022-11-15T13:53:52;3.80;;;1.85;;
51814;SDS011;37874;53.158;6.766;2022-11-15T13:56:23;3.03;;;1.80;;
51814;SDS011;37874;53.158;6.766;2022-11-15T13:58:51;2.70;;;1.60;;
51814;SDS011;37874;53.158;6.766;2022-11-15T14:01:18;4.20;;;1.80;;
51814;SDS011;37874;53.158;6.766;2022-11-15T14:03:56;6.88;;;2.22;;
51814;SDS011;37874;53.158;6.766;2022-11-15T14:06:24;3.45;;;1.77;;
51814;SDS011;37874;53.158;6.766;2022-11-15T14:09:29;3.53;;;1.50;;
51814;SDS011;37874;53.158;6.766;2022-11-15T14:11:51;3.38;;;1.63;;
51814;SDS011;37874;53.158;6.766;2022-11-15T14:14:19;3.05;;;1.70;;
51814;SDS011;37874;53.158;6.766;2022-11-15T14:16:51;3.97;;;1.75;;
51814;SDS011;37874;53.158;6.766;2022-11-15T14:30:35;2.30;;;1.17;;
51814;SDS011;37874;53.158;6.766;2022-11-15T14:33:01;4.25;;;1.50;;
51814;SDS011;37874;53.158;6.766;2022-11-15T14:35:27;4.13;;;1.60;;
51814;SDS011;37874;53.158;6.766;2022-11-15T14:37:53;3.17;;;1.70;;
51814;SDS011;37874;53.158;6.766;2022-11-15T14:40:20;3.92;;;2.03;;
51814;SDS011;37874;53.158;6.766;2022-11-15T14:42:47;2.95;;;1.70;;
51814;SDS011;37874;53.158;6.766;2022-11-15T14:47:41;2.65;;;1.60;;
51814;SDS011;37874;53.158;6.766;2022-11-15T14:50:11;3.78;;;1.70;;
51814;SDS011;37874;53.158;6.766;2022-11-15T14:52:41;2.60;;;1.50;;
51814;SDS011;37874;53.158;6.766;2022-11-15T14:57:48;2.20;;;1.30;;
51814;SDS011;37874;53.158;6.766;2022-11-15T15:00:14;2.25;;;1.20;;
51814;SDS011;37874;53.158;6.766;2022-11-15T15:02:41;3.38;;;1.40;;
51814;SDS011;37874;53.158;6.766;2022-11-15T15:05:29;5.25;;;1.67;;
51814;SDS011;37874;53.158;6.766;2022-11-15T15:07:57;2.70;;;1.30;;
51814;SDS011;37874;53.158;6.766;2022-11-15T15:10:23;2.40;;;1.13;;
51814;SDS011;37874;53.158;6.766;2022-11-15T15:12:53;3.13;;;1.40;;
51814;SDS011;37874;53.158;6.766;2022-11-15T15:15:24;2.20;;;1.30;;
51814;SDS011;37874;53.158;6.766;2022-11-15T15:17:50;1.90;;;1.15;;
51814;SDS011;37874;53.158;6.766;2022-11-15T15:20:16;2.45;;;1.20;;
51814;SDS011;37874;53.158;6.766;2022-11-15T15:22:42;3.60;;;1.35;;
51814;SDS011;37874;53.158;6.766;2022-11-15T15:28:04;4.03;;;1.52;;
51814;SDS011;37874;53.158;6.766;2022-11-15T15:30:29;2.63;;;1.30;;
51814;SDS011;37874;53.158;6.766;2022-11-15T15:32:56;2.15;;;1.20;;
51814;SDS011;37874;53.158;6.766;2022-11-15T15:35:21;2.88;;;1.33;;
51814;SDS011;37874;53.158;6.766;2022-11-15T15:37:48;4.72;;;1.58;;
51814;SDS011;37874;53.158;6.766;2022-11-15T15:40:16;2.63;;;1.23;;
51814;SDS011;37874;53.158;6.766;2022-11-15T15:42:43;2.15;;;1.10;;
51814;SDS011;37874;53.158;6.766;2022-11-15T15:45:09;2.92;;;1.30;;
51814;SDS011;37874;53.158;6.766;2022-11-15T15:47:35;2.28;;;1.30;;
51814;SDS011;37874;53.158;6.766;2022-11-15T15:50:01;2.63;;;1.50;;
51814;SDS011;37874;53.158;6.766;2022-11-15T15:52:27;2.97;;;1.50;;
51814;SDS011;37874;53.158;6.766;2022-11-15T15:54:53;2.92;;;1.67;;
51814;SDS011;37874;53.158;6.766;2022-11-15T15:57:18;2.78;;;1.58;;
51814;SDS011;37874;53.158;6.766;2022-11-15T15:59:44;3.53;;;1.80;;
51814;SDS011;37874;53.158;6.766;2022-11-15T16:02:13;4.18;;;2.17;;
51814;SDS011;37874;53.158;6.766;2022-11-15T16:04:39;5.07;;;3.15;;
51814;SDS011;37874;53.158;6.766;2022-11-15T16:07:05;4.22;;;2.47;;
51814;SDS011;37874;53.158;6.766;2022-11-15T16:09:31;4.35;;;2.60;;
51814;SDS011;37874;53.158;6.766;2022-11-15T16:12:15;3.47;;;2.13;;
51814;SDS011;37874;53.158;6.766;2022-11-15T16:14:41;4.07;;;1.90;;
51814;SDS011;37874;53.158;6.766;2022-11-15T16:17:10;2.75;;;1.65;;
51814;SDS011;37874;53.158;6.766;2022-11-15T16:19:42;2.95;;;1.40;;
51814;SDS011;37874;53.158;6.766;2022-11-15T16:22:08;3.03;;;1.55;;
51814;SDS011;37874;53.158;6.766;2022-11-15T16:24:33;3.35;;;1.60;;
51814;SDS011;37874;53.158;6.766;2022-11-15T16:26:59;3.55;;;1.33;;
51814;SDS011;37874;53.158;6.766;2022-11-15T16:29:24;3.30;;;1.52;;
51814;SDS011;37874;53.158;6.766;2022-11-15T16:31:50;2.92;;;1.35;;
51814;SDS011;37874;53.158;6.766;2022-11-15T16:34:16;2.80;;;1.30;;
51814;SDS011;37874;53.158;6.766;2022-11-15T16:36:42;2.92;;;1.50;;
51814;SDS011;37874;53.158;6.766;2022-11-15T16:39:11;4.03;;;1.77;;
51814;SDS011;37874;53.158;6.766;2022-11-15T16:44:12;2.40;;;1.17;;
51814;SDS011;37874;53.158;6.766;2022-11-15T16:46:38;2.13;;;1.40;;
51814;SDS011;37874;53.158;6.766;2022-11-15T16:49:08;2.35;;;1.45;;
51814;SDS011;37874;53.158;6.766;2022-11-15T16:51:37;3.60;;;1.60;;
51814;SDS011;37874;53.158;6.766;2022-11-15T16:54:05;4.07;;;1.50;;
51814;SDS011;37874;53.158;6.766;2022-11-15T16:56:30;3.40;;;1.25;;
51814;SDS011;37874;53.158;6.766;2022-11-15T16:58:57;4.57;;;1.50;;
51814;SDS011;37874;53.158;6.766;2022-11-15T17:01:24;2.78;;;1.45;;
51814;SDS011;37874;53.158;6.766;2022-11-15T17:03:51;2.92;;;1.50;;
51814;SDS011;37874;53.158;6.766;2022-11-15T17:06:17;2.45;;;1.35;;
51814;SDS011;37874;53.158;6.766;2022-11-15T17:08:46;2.55;;;1.35;;
51814;SDS011;37874;53.158;6.766;2022-11-15T17:11:19;2.95;;;1.40;;
51814;SDS011;37874;53.158;6.766;2022-11-15T17:13:46;2.05;;;1.20;;
51814;SDS011;37874;53.158;6.766;2022-11-15T17:16:14;2.15;;;1.17;;
51814;SDS011;37874;53.158;6.766;2022-11-15T17:18:42;3.58;;;1.55;;
51814;SDS011;37874;53.158;6.766;2022-11-15T17:21:16;1.98;;;1.38;;
51814;SDS011;37874;53.158;6.766;2022-11-15T17:23:44;3.38;;;1.58;;
51814;SDS011;37874;53.158;6.766;2022-11-15T17:26:10;3.42;;;1.30;;
51814;SDS011;37874;53.158;6.766;2022-11-15T17:28:37;2.30;;;1.33;;
51814;SDS011;37874;53.158;6.766;2022-11-15T17:31:07;2.15;;;1.30;;
51814;SDS011;37874;53.158;6.766;2022-11-15T17:33:34;2.50;;;1.50;;
51814;SDS011;37874;53.158;6.766;2022-11-15T17:36:02;2.72;;;1.50;;
51814;SDS011;37874;53.158;6.766;2022-11-15T17:38:29;2.38;;;1.50;;
51814;SDS011;37874;53.158;6.766;2022-11-15T17:40:59;3.38;;;1.35;;
51814;SDS011;37874;53.158;6.766;2022-11-15T17:43:26;3.17;;;1.35;;
51814;SDS011;37874;53.158;6.766;2022-11-15T17:45:52;2.90;;;1.40;;
51814;SDS011;37874;53.158;6.766;2022-11-15T17:48:17;2.83;;;1.20;;
51814;SDS011;37874;53.158;6.766;2022-11-15T17:50:43;2.55;;;1.60;;
51814;SDS011;37874;53.158;6.766;2022-11-15T17:53:08;3.42;;;1.67;;
51814;SDS011;37874;53.158;6.766;2022-11-15T17:55:34;4.78;;;1.67;;
51814;SDS011;37874;53.158;6.766;2022-11-15T17:57:59;2.65;;;1.40;;
51814;SDS011;37874;53.158;6.766;2022-11-15T18:00:25;2.53;;;1.33;;
51814;SDS011;37874;53.158;6.766;2022-11-15T18:02:51;3.45;;;1.73;;
51814;SDS011;37874;53.158;6.766;2022-11-15T18:05:16;3.20;;;1.42;;
51814;SDS011;37874;53.158;6.766;2022-11-15T18:07:42;2.70;;;1.40;;
51814;SDS011;37874;53.158;6.766;2022-11-15T18:10:07;2.55;;;1.40;;
51814;SDS011;37874;53.158;6.766;2022-11-15T18:12:33;2.08;;;1.30;;
51814;SDS011;37874;53.158;6.766;2022-11-15T18:14:59;2.83;;;1.52;;
51814;SDS011;37874;53.158;6.766;2022-11-15T18:17:25;3.42;;;1.52;;
51814;SDS011;37874;53.158;6.766;2022-11-15T18:19:50;2.90;;;1.45;;
51814;SDS011;37874;53.158;6.766;2022-11-15T18:22:16;2.75;;;1.50;;
51814;SDS011;37874;53.158;6.766;2022-11-15T18:24:42;2.75;;;1.30;;
51814;SDS011;37874;53.158;6.766;2022-11-15T18:27:08;2.40;;;1.42;;
51814;SDS011;37874;53.158;6.766;2022-11-15T18:29:34;3.40;;;1.83;;
51814;SDS011;37874;53.158;6.766;2022-11-15T18:32:02;3.30;;;1.75;;
51814;SDS011;37874;53.158;6.766;2022-11-15T18:34:30;4.85;;;2.10;;
51814;SDS011;37874;53.158;6.766;2022-11-15T18:36:58;4.13;;;2.00;;
51814;SDS011;37874;53.158;6.766;2022-11-15T18:39:26;3.38;;;2.00;;
51814;SDS011;37874;53.158;6.766;2022-11-15T18:41:52;2.90;;;1.85;;
51814;SDS011;37874;53.158;6.766;2022-11-15T18:44:18;3.28;;;1.85;;
51814;SDS011;37874;53.158;6.766;2022-11-15T18:46:44;3.95;;;1.98;;
51814;SDS011;37874;53.158;6.766;2022-11-15T18:49:10;4.50;;;2.20;;
51814;SDS011;37874;53.158;6.766;2022-11-15T18:51:37;3.38;;;1.80;;
51814;SDS011;37874;53.158;6.766;2022-11-15T18:54:06;3.78;;;1.80;;
51814;SDS011;37874;53.158;6.766;2022-11-15T18:56:33;4.40;;;2.25;;
51814;SDS011;37874;53.158;6.766;2022-11-15T18:59:00;3.20;;;1.92;;
51814;SDS011;37874;53.158;6.766;2022-11-15T19:01:40;5.80;;;2.75;;
51814;SDS011;37874;53.158;6.766;2022-11-15T19:04:08;4.70;;;2.65;;
51814;SDS011;37874;53.158;6.766;2022-11-15T19:06:36;4.63;;;2.85;;
51814;SDS011;37874;53.158;6.766;2022-11-15T19:09:06;3.42;;;1.95;;
51814;SDS011;37874;53.158;6.766;2022-11-15T19:11:34;4.18;;;2.20;;
51814;SDS011;37874;53.158;6.766;2022-11-15T19:14:08;3.50;;;2.13;;
51814;SDS011;37874;53.158;6.766;2022-11-15T19:16:36;4.10;;;2.30;;
51814;SDS011;37874;53.158;6.766;2022-11-15T19:19:11;3.00;;;1.83;;
51814;SDS011;37874;53.158;6.766;2022-11-15T19:21:38;3.42;;;1.90;;
51814;SDS011;37874;53.158;6.766;2022-11-15T19:24:04;3.75;;;2.00;;
51814;SDS011;37874;53.158;6.766;2022-11-15T19:26:30;2.75;;;1.75;;
51814;SDS011;37874;53.158;6.766;2022-11-15T19:28:56;3.35;;;2.03;;
51814;SDS011;37874;53.158;6.766;2022-11-15T19:31:24;4.13;;;2.38;;
51814;SDS011;37874;53.158;6.766;2022-11-15T19:33:51;4.15;;;2.40;;
51814;SDS011;37874;53.158;6.766;2022-11-15T19:36:39;4.75;;;2.42;;
51814;SDS011;37874;53.158;6.766;2022-11-15T19:39:05;3.85;;;2.40;;
51814;SDS011;37874;53.158;6.766;2022-11-15T19:41:34;4.05;;;2.60;;
51814;SDS011;37874;53.158;6.766;2022-11-15T19:44:02;5.47;;;3.03;;